sensor_id;sensor_type;location;lat;lon;timestamp;pressure;altitude;pressure_sealevel;temperature;humidity
33163;BME280;29282;45.656;11.302;2023-01-29T00:01:42;99078.72;;;18.57;42.27
33163;BME280;29282;45.656;11.302;2023-01-29T00:04:08;99075.16;;;18.56;42.11
33163;BME280;29282;45.656;11.302;2023-01-29T00:06:33;99070.00;;;18.54;42.16
33163;BME280;29282;45.656;11.302;2023-01-29T00:08:59;99070.47;;;18.57;41.61
33163;BME280;29282;45.656;11.302;2023-01-29T00:11:24;99074.84;;;18.58;42.07
33163;BME280;29282;45.656;11.302;2023-01-29T00:13:51;99075.97;;;18.57;41.95
33163;BME280;29282;45.656;11.302;2023-01-29T00:16:17;99070.16;;;18.58;41.96
33163;BME280;29282;45.656;11.302;2023-01-29T00:18:43;99072.91;;;18.58;41.93
33163;BME280;29282;45.656;11.302;2023-01-29T00:21:16;99086.31;;;18.60;41.97
33163;BME280;29282;45.656;11.302;2023-01-29T00:23:43;99076.47;;;18.59;41.83
33163;BME280;29282;45.656;11.302;2023-01-29T00:26:09;99074.19;;;18.61;41.88
33163;BME280;29282;45.656;11.302;2023-01-29T00:28:34;99076.94;;;18.61;41.88
33163;BME280;29282;45.656;11.302;2023-01-29T00:31:12;99077.78;;;18.61;41.77
33163;BME280;29282;45.656;11.302;2023-01-29T00:33:37;99072.59;;;18.60;41.90
33163;BME280;29282;45.656;11.302;2023-01-29T00:36:04;99068.22;;;18.59;41.94
33163;BME280;29282;45.656;11.302;2023-01-29T00:38:31;99069.03;;;18.59;41.85
33163;BME280;29282;45.656;11.302;2023-01-29T00:40:57;99080.00;;;18.59;41.91
33163;BME280;29282;45.656;11.302;2023-01-29T00:43:47;99078.41;;;18.58;41.86
33163;BME280;29282;45.656;11.302;2023-01-29T00:46:31;99074.03;;;18.57;41.73
33163;BME280;29282;45.656;11.302;2023-01-29T00:48:56;99078.72;;;18.57;41.74
33163;BME280;29282;45.656;11.302;2023-01-29T00:51:22;99077.28;;;18.59;41.75
33163;BME280;29282;45.656;11.302;2023-01-29T00:53:47;99075.50;;;18.63;41.68
33163;BME280;29282;45.656;11.302;2023-01-29T00:56:13;99074.19;;;18.61;41.70
33163;BME280;29282;45.656;11.302;2023-01-29T00:58:38;99079.50;;;18.57;41.84
33163;BME280;29282;45.656;11.302;2023-01-29T01:01:04;99083.38;;;18.56;41.78
33163;BME280;29282;45.656;11.302;2023-01-29T01:03:29;99090.00;;;18.55;41.77
33163;BME280;29282;45.656;11.302;2023-01-29T01:06:06;99089.22;;;18.54;41.88
33163;BME280;29282;45.656;11.302;2023-01-29T01:08:32;99086.47;;;18.54;41.85
33163;BME280;29282;45.656;11.302;2023-01-29T01:11:21;99078.53;;;18.53;41.89
33163;BME280;29282;45.656;11.302;2023-01-29T01:13:46;99076.91;;;18.52;41.74
33163;BME280;29282;45.656;11.302;2023-01-29T01:16:14;99082.41;;;18.52;41.72
33163;BME280;29282;45.656;11.302;2023-01-29T01:18:41;99081.28;;;18.53;41.79
33163;BME280;29282;45.656;11.302;2023-01-29T01:21:07;99090.63;;;18.52;41.78
33163;BME280;29282;45.656;11.302;2023-01-29T01:23:33;99085.16;;;18.52;41.88
33163;BME280;29282;45.656;11.302;2023-01-29T01:25:58;99083.53;;;18.51;41.84
33163;BME280;29282;45.656;11.302;2023-01-29T01:28:25;99085.44;;;18.50;41.87
33163;BME280;29282;45.656;11.302;2023-01-29T01:30:50;99089.03;;;18.51;41.73
33163;BME280;29282;45.656;11.302;2023-01-29T01:33:16;99089.03;;;18.51;41.81
33163;BME280;29282;45.656;11.302;2023-01-29T01:35:41;99085.44;;;18.50;41.83
33163;BME280;29282;45.656;11.302;2023-01-29T01:38:07;99081.91;;;18.50;41.77
33163;BME280;29282;45.656;11.302;2023-01-29T01:40:32;99085.16;;;18.52;41.87
33163;BME280;29282;45.656;11.302;2023-01-29T01:42:59;99083.53;;;18.51;41.80
33163;BME280;29282;45.656;11.302;2023-01-29T01:45:32;99080.78;;;18.51;41.71
33163;BME280;29282;45.656;11.302;2023-01-29T01:48:22;99082.72;;;18.50;41.82
33163;BME280;29282;45.656;11.302;2023-01-29T01:50:57;99072.56;;;18.51;41.82
33163;BME280;29282;45.656;11.302;2023-01-29T01:53:36;99068.50;;;18.48;41.81
33163;BME280;29282;45.656;11.302;2023-01-29T01:56:21;99064.97;;;18.48;41.65
33163;BME280;29282;45.656;11.302;2023-01-29T01:58:54;99077.84;;;18.47;41.80
33163;BME280;29282;45.656;11.302;2023-01-29T02:01:22;99069.94;;;18.46;41.88
33163;BME280;29282;45.656;11.302;2023-01-29T02:04:19;99076.25;;;18.46;41.73
33163;BME280;29282;45.656;11.302;2023-01-29T02:07:07;99084.16;;;18.48;41.69
33163;BME280;29282;45.656;11.302;2023-01-29T02:09:58;99090.75;;;18.47;41.83
33163;BME280;29282;45.656;11.302;2023-01-29T02:12:25;99089.16;;;18.46;41.76
33163;BME280;29282;45.656;11.302;2023-01-29T02:14:53;99090.28;;;18.45;41.67
33163;BME280;29282;45.656;11.302;2023-01-29T02:17:19;99097.38;;;18.46;41.60
33163;BME280;29282;45.656;11.302;2023-01-29T02:28:50;99089.78;;;18.43;41.77
33163;BME280;29282;45.656;11.302;2023-01-29T02:31:38;99098.34;;;18.41;41.92
33163;BME280;29282;45.656;11.302;2023-01-29T02:34:15;99088.16;;;18.42;41.89
33163;BME280;29282;45.656;11.302;2023-01-29T02:37:02;99093.66;;;18.42;41.66
33163;BME280;29282;45.656;11.302;2023-01-29T02:39:42;99089.78;;;18.43;41.78
33163;BME280;29282;45.656;11.302;2023-01-29T02:42:19;99088.97;;;18.42;41.74
33163;BME280;29282;45.656;11.302;2023-01-29T02:47:37;99084.63;;;18.41;41.75
33163;BME280;29282;45.656;11.302;2023-01-29T02:50:18;99083.78;;;18.41;41.65
33163;BME280;29282;45.656;11.302;2023-01-29T02:52:50;99081.03;;;18.41;41.66
33163;BME280;29282;45.656;11.302;2023-01-29T02:55:35;99080.25;;;18.40;41.85
33163;BME280;29282;45.656;11.302;2023-01-29T02:58:09;99078.97;;;18.38;41.75
33163;BME280;29282;45.656;11.302;2023-01-29T03:00:40;99077.03;;;18.38;41.74
33163;BME280;29282;45.656;11.302;2023-01-29T03:03:31;99093.47;;;18.38;41.66
33163;BME280;29282;45.656;11.302;2023-01-29T03:08:38;99092.34;;;18.39;41.63
33163;BME280;29282;45.656;11.302;2023-01-29T03:11:11;99092.69;;;18.38;41.71
33163;BME280;29282;45.656;11.302;2023-01-29T03:14:16;99091.03;;;18.37;41.74
33163;BME280;29282;45.656;11.302;2023-01-29T03:16:50;99100.06;;;18.37;41.61
33163;BME280;29282;45.656;11.302;2023-01-29T03:19:20;99086.69;;;18.36;41.84
33163;BME280;29282;45.656;11.302;2023-01-29T03:21:55;99091.03;;;18.37;41.85
33163;BME280;29282;45.656;11.302;2023-01-29T03:27:26;99100.91;;;18.38;41.74
33163;BME280;29282;45.656;11.302;2023-01-29T03:30:13;99094.91;;;18.36;41.68
33163;BME280;29282;45.656;11.302;2023-01-29T03:33:03;99114.91;;;18.36;41.78
33163;BME280;29282;45.656;11.302;2023-01-29T03:35:33;99110.25;;;18.37;41.53
33163;BME280;29282;45.656;11.302;2023-01-29T03:38:03;99119.59;;;18.36;41.68
33163;BME280;29282;45.656;11.302;2023-01-29T03:40:54;99118.00;;;18.35;41.66
33163;BME280;29282;45.656;11.302;2023-01-29T03:43:32;99120.72;;;18.35;41.62
33163;BME280;29282;45.656;11.302;2023-01-29T03:46:03;99115.25;;;18.35;41.73
33163;BME280;29282;45.656;11.302;2023-01-29T03:48:36;99121.84;;;18.34;41.64
33163;BME280;29282;45.656;11.302;2023-01-29T03:51:48;99107.31;;;18.33;41.63
33163;BME280;29282;45.656;11.302;2023-01-29T03:54:23;99113.94;;;18.32;41.61
33163;BME280;29282;45.656;11.302;2023-01-29T04:02:07;99099.41;;;18.31;41.52
33163;BME280;29282;45.656;11.302;2023-01-29T04:04:36;99114.75;;;18.33;41.57
33163;BME280;29282;45.656;11.302;2023-01-29T04:07:11;99109.25;;;18.33;41.60
33163;BME280;29282;45.656;11.302;2023-01-29T04:09:50;99110.06;;;18.33;41.67
33163;BME280;29282;45.656;11.302;2023-01-29T04:12:23;99114.75;;;18.33;41.47
33163;BME280;29282;45.656;11.302;2023-01-29T04:14:51;99115.88;;;18.31;41.74
33163;BME280;29282;45.656;11.302;2023-01-29T04:17:22;99113.13;;;18.31;41.72
33163;BME280;29282;45.656;11.302;2023-01-29T04:19:49;99113.94;;;18.32;41.73
33163;BME280;29282;45.656;11.302;2023-01-29T04:22:20;99101.34;;;18.31;41.66
33163;BME280;29282;45.656;11.302;2023-01-29T04:24:49;99095.88;;;18.31;41.64
33163;BME280;29282;45.656;11.302;2023-01-29T04:30:03;99090.38;;;18.31;41.72
33163;BME280;29282;45.656;11.302;2023-01-29T04:40:32;99095.66;;;18.27;41.69
33163;BME280;29282;45.656;11.302;2023-01-29T04:46:18;99102.28;;;18.26;41.59
33163;BME280;29282;45.656;11.302;2023-01-29T04:49:00;99093.25;;;18.26;41.72
33163;BME280;29282;45.656;11.302;2023-01-29T04:57:25;99111.94;;;18.24;41.63
33163;BME280;29282;45.656;11.302;2023-01-29T05:00:04;99110.84;;;18.25;41.70
33163;BME280;29282;45.656;11.302;2023-01-29T05:02:35;99108.38;;;18.23;41.59
33163;BME280;29282;45.656;11.302;2023-01-29T05:05:02;99109.19;;;18.24;41.71
33163;BME280;29282;45.656;11.302;2023-01-29T05:07:30;99110.84;;;18.25;41.95
33163;BME280;29282;45.656;11.302;2023-01-29T05:09:55;99113.88;;;18.23;41.67
33163;BME280;29282;45.656;11.302;2023-01-29T05:12:24;99110.31;;;18.23;41.59
33163;BME280;29282;45.656;11.302;2023-01-29T05:14:51;99113.06;;;18.23;41.71
33163;BME280;29282;45.656;11.302;2023-01-29T05:17:19;99107.56;;;18.23;41.71
33163;BME280;29282;45.656;11.302;2023-01-29T05:19:45;99110.31;;;18.23;41.67
33163;BME280;29282;45.656;11.302;2023-01-29T05:22:13;99113.88;;;18.23;41.72
33163;BME280;29282;45.656;11.302;2023-01-29T05:24:40;99109.19;;;18.24;41.69
33163;BME280;29282;45.656;11.302;2023-01-29T05:27:06;99113.06;;;18.23;41.64
33163;BME280;29282;45.656;11.302;2023-01-29T05:29:55;99111.13;;;18.23;41.66
33163;BME280;29282;45.656;11.302;2023-01-29T05:32:21;99109.53;;;18.22;41.45
33163;BME280;29282;45.656;11.302;2023-01-29T05:34:47;99115.81;;;18.23;41.63
33163;BME280;29282;45.656;11.302;2023-01-29T05:37:12;99117.41;;;18.24;41.52
33163;BME280;29282;45.656;11.302;2023-01-29T05:39:37;99115.81;;;18.23;41.90
33163;BME280;29282;45.656;11.302;2023-01-29T05:42:03;99118.56;;;18.23;41.48
33163;BME280;29282;45.656;11.302;2023-01-29T05:44:28;99116.63;;;18.23;41.61
33163;BME280;29282;45.656;11.302;2023-01-29T05:46:54;99120.50;;;18.22;41.66
33163;BME280;29282;45.656;11.302;2023-01-29T05:49:19;99115.81;;;18.23;41.60
33163;BME280;29282;45.656;11.302;2023-01-29T05:51:46;99120.78;;;18.21;41.67
33163;BME280;29282;45.656;11.302;2023-01-29T05:54:12;99118.03;;;18.21;41.71
33163;BME280;29282;45.656;11.302;2023-01-29T05:56:38;99119.97;;;18.20;41.54
33163;BME280;29282;45.656;11.302;2023-01-29T05:59:04;99122.72;;;18.20;41.68
33163;BME280;29282;45.656;11.302;2023-01-29T06:01:30;99116.44;;;18.20;41.54
33163;BME280;29282;45.656;11.302;2023-01-29T06:03:55;99129.84;;;18.21;41.64
33163;BME280;29282;45.656;11.302;2023-01-29T06:06:20;99127.72;;;18.18;41.73
33163;BME280;29282;45.656;11.302;2023-01-29T06:08:46;99132.09;;;18.19;41.63
33163;BME280;29282;45.656;11.302;2023-01-29T06:11:13;99127.72;;;18.18;41.62
33163;BME280;29282;45.656;11.302;2023-01-29T06:13:39;99135.97;;;18.18;41.50
33163;BME280;29282;45.656;11.302;2023-01-29T06:16:06;99141.44;;;18.18;41.66
33163;BME280;29282;45.656;11.302;2023-01-29T06:18:31;99136.25;;;18.17;41.61
33163;BME280;29282;45.656;11.302;2023-01-29T06:21:04;99146.09;;;18.18;41.77
33163;BME280;29282;45.656;11.302;2023-01-29T06:23:30;99149.97;;;18.17;41.53
33163;BME280;29282;45.656;11.302;2023-01-29T06:26:14;99148.34;;;18.16;41.73
33163;BME280;29282;45.656;11.302;2023-01-29T06:28:41;99142.88;;;18.16;41.57
33163;BME280;29282;45.656;11.302;2023-01-29T06:31:07;99146.75;;;18.15;41.52
33163;BME280;29282;45.656;11.302;2023-01-29T06:33:33;99146.75;;;18.15;41.73
33163;BME280;29282;45.656;11.302;2023-01-29T06:36:02;99154.97;;;18.15;41.64
33163;BME280;29282;45.656;11.302;2023-01-29T06:38:29;99156.88;;;18.14;41.54
33163;BME280;29282;45.656;11.302;2023-01-29T06:40:56;99163.50;;;18.13;41.75
33163;BME280;29282;45.656;11.302;2023-01-29T06:43:22;99168.19;;;18.13;41.63
33163;BME280;29282;45.656;11.302;2023-01-29T06:45:52;99168.97;;;18.13;41.68
33163;BME280;29282;45.656;11.302;2023-01-29T06:48:18;99167.84;;;18.14;41.69
33163;BME280;29282;45.656;11.302;2023-01-29T06:50:44;99167.38;;;18.12;41.63
33163;BME280;29282;45.656;11.302;2023-01-29T06:53:10;99160.75;;;18.13;41.52
33163;BME280;29282;45.656;11.302;2023-01-29T06:55:36;99170.09;;;18.12;41.76
33163;BME280;29282;45.656;11.302;2023-01-29T06:58:06;99168.19;;;18.13;41.49
33163;BME280;29282;45.656;11.302;2023-01-29T07:00:32;99172.53;;;18.14;41.72
33163;BME280;29282;45.656;11.302;2023-01-29T07:02:57;99172.53;;;18.14;41.53
33163;BME280;29282;45.656;11.302;2023-01-29T07:05:23;99182.69;;;18.13;41.59
33163;BME280;29282;45.656;11.302;2023-01-29T07:07:48;99185.44;;;18.13;41.64
33163;BME280;29282;45.656;11.302;2023-01-29T07:10:14;99188.19;;;18.13;41.52
33163;BME280;29282;45.656;11.302;2023-01-29T07:12:39;99190.63;;;18.15;41.52
33163;BME280;29282;45.656;11.302;2023-01-29T07:15:05;99198.34;;;18.13;41.59
33163;BME280;29282;45.656;11.302;2023-01-29T07:37:42;99217.53;;;18.13;41.67
33163;BME280;29282;45.656;11.302;2023-01-29T07:40:08;99221.59;;;18.15;41.58
33163;BME280;29282;45.656;11.302;2023-01-29T07:42:37;99228.59;;;18.21;41.43
33163;BME280;29282;45.656;11.302;2023-01-29T07:45:04;99228.34;;;18.31;41.35
33163;BME280;29282;45.656;11.302;2023-01-29T07:47:29;99228.16;;;18.50;40.98
33163;BME280;29282;45.656;11.302;2023-01-29T07:49:55;99230.19;;;18.67;40.40
33163;BME280;29282;45.656;11.302;2023-01-29T07:52:20;99227.44;;;18.81;40.21
33163;BME280;29282;45.656;11.302;2023-01-29T07:54:46;99232.78;;;18.86;40.14
33163;BME280;29282;45.656;11.302;2023-01-29T07:57:11;99231.50;;;18.92;40.04
33163;BME280;29282;45.656;11.302;2023-01-29T07:59:37;99237.19;;;18.96;39.99
33163;BME280;29282;45.656;11.302;2023-01-29T08:02:02;99236.56;;;18.99;39.92
33163;BME280;29282;45.656;11.302;2023-01-29T08:04:28;99239.31;;;18.99;39.93
33163;BME280;29282;45.656;11.302;2023-01-29T08:06:53;99243.66;;;19.00;39.96
33163;BME280;29282;45.656;11.302;2023-01-29T08:09:19;99247.22;;;19.00;40.00
33163;BME280;29282;45.656;11.302;2023-01-29T08:11:44;99246.75;;;18.98;40.07
33163;BME280;29282;45.656;11.302;2023-01-29T08:14:10;99242.06;;;18.99;40.00
33163;BME280;29282;45.656;11.302;2023-01-29T08:16:35;99243.47;;;18.96;40.16
33163;BME280;29282;45.656;11.302;2023-01-29T08:19:02;99247.66;;;18.94;40.26
33163;BME280;29282;45.656;11.302;2023-01-29T08:21:28;99244.91;;;18.94;40.17
33163;BME280;29282;45.656;11.302;2023-01-29T08:23:54;99246.38;;;18.91;40.29
33163;BME280;29282;45.656;11.302;2023-01-29T08:26:19;99242.69;;;18.96;40.19
33163;BME280;29282;45.656;11.302;2023-01-29T08:28:45;99236.72;;;19.02;40.21
33163;BME280;29282;45.656;11.302;2023-01-29T08:31:14;99241.78;;;19.09;39.97
33163;BME280;29282;45.656;11.302;2023-01-29T08:33:40;99234.56;;;19.22;39.83
33163;BME280;29282;45.656;11.302;2023-01-29T08:36:07;99238.00;;;19.28;39.50
33163;BME280;29282;45.656;11.302;2023-01-29T08:38:32;99243.50;;;19.36;39.56
33163;BME280;29282;45.656;11.302;2023-01-29T08:40:58;99236.28;;;19.40;39.34
33163;BME280;29282;45.656;11.302;2023-01-29T08:43:23;99236.09;;;19.45;39.49
33163;BME280;29282;45.656;11.302;2023-01-29T08:45:49;99240.34;;;19.52;39.37
33163;BME280;29282;45.656;11.302;2023-01-29T08:48:14;99238.38;;;19.52;39.40
33163;BME280;29282;45.656;11.302;2023-01-29T08:50:40;99248.25;;;19.53;39.31
33163;BME280;29282;45.656;11.302;2023-01-29T08:53:07;99240.19;;;19.57;39.36
33163;BME280;29282;45.656;11.302;2023-01-29T08:55:37;99239.38;;;19.56;39.39
33163;BME280;29282;45.656;11.302;2023-01-29T08:58:04;99244.22;;;19.59;39.27
33163;BME280;29282;45.656;11.302;2023-01-29T09:00:31;99242.78;;;18.23;33.51
33163;BME280;29282;45.656;11.302;2023-01-29T09:02:57;99244.50;;;17.00;33.78
33163;BME280;29282;45.656;11.302;2023-01-29T09:05:24;99247.13;;;16.40;33.01
33163;BME280;29282;45.656;11.302;2023-01-29T09:07:50;99253.50;;;16.16;32.34
33163;BME280;29282;45.656;11.302;2023-01-29T09:10:16;99256.78;;;16.51;32.53
33163;BME280;29282;45.656;11.302;2023-01-29T09:12:41;99253.44;;;17.75;31.70
33163;BME280;29282;45.656;11.302;2023-01-29T09:15:07;99249.47;;;18.53;30.59
33163;BME280;29282;45.656;11.302;2023-01-29T09:17:34;99256.28;;;19.01;30.06
33163;BME280;29282;45.656;11.302;2023-01-29T09:20:01;99247.34;;;19.27;30.06
33163;BME280;29282;45.656;11.302;2023-01-29T09:22:27;99251.28;;;19.43;30.24
33163;BME280;29282;45.656;11.302;2023-01-29T09:24:54;99246.00;;;19.55;30.46
33163;BME280;29282;45.656;11.302;2023-01-29T09:27:21;99249.00;;;19.67;30.43
33163;BME280;29282;45.656;11.302;2023-01-29T09:29:48;99249.78;;;19.68;30.98
33163;BME280;29282;45.656;11.302;2023-01-29T09:32:14;99246.06;;;19.73;31.38
33163;BME280;29282;45.656;11.302;2023-01-29T09:34:40;99241.25;;;19.78;31.78
33163;BME280;29282;45.656;11.302;2023-01-29T09:37:06;99250.63;;;19.86;31.94
33163;BME280;29282;45.656;11.302;2023-01-29T09:47:38;99246.44;;;19.88;32.75
33163;BME280;29282;45.656;11.302;2023-01-29T09:50:20;99236.88;;;19.86;33.02
33163;BME280;29282;45.656;11.302;2023-01-29T09:55:36;99243.69;;;19.88;33.31
33163;BME280;29282;45.656;11.302;2023-01-29T09:58:34;99234.47;;;19.84;33.72
33163;BME280;29282;45.656;11.302;2023-01-29T10:01:26;99233.81;;;19.87;33.72
33163;BME280;29282;45.656;11.302;2023-01-29T10:09:36;99213.44;;;19.88;34.30
33163;BME280;29282;45.656;11.302;2023-01-29T10:15:26;99216.84;;;19.94;34.36
33163;BME280;29282;45.656;11.302;2023-01-29T10:20:39;99212.00;;;19.91;34.83
33163;BME280;29282;45.656;11.302;2023-01-29T10:23:31;99204.84;;;19.90;34.80
33163;BME280;29282;45.656;11.302;2023-01-29T10:25:57;99202.44;;;19.88;34.97
33163;BME280;29282;45.656;11.302;2023-01-29T10:28:37;99200.81;;;19.87;35.11
33163;BME280;29282;45.656;11.302;2023-01-29T10:31:12;99196.59;;;19.90;35.21
33163;BME280;29282;45.656;11.302;2023-01-29T10:33:45;99193.84;;;19.90;35.29
33163;BME280;29282;45.656;11.302;2023-01-29T10:36:20;99193.38;;;19.88;35.58
33163;BME280;29282;45.656;11.302;2023-01-29T10:38:50;99185.78;;;19.85;35.50
33163;BME280;29282;45.656;11.302;2023-01-29T10:44:04;99179.13;;;19.86;35.64
33163;BME280;29282;45.656;11.302;2023-01-29T11:00:49;99149.06;;;19.98;35.69
33163;BME280;29282;45.656;11.302;2023-01-29T11:03:23;99147.09;;;19.99;35.92
33163;BME280;29282;45.656;11.302;2023-01-29T11:05:57;99133.84;;;20.01;35.89
33163;BME280;29282;45.656;11.302;2023-01-29T11:08:32;99129.63;;;20.03;36.13
33163;BME280;29282;45.656;11.302;2023-01-29T11:11:52;99127.53;;;20.00;36.11
33163;BME280;29282;45.656;11.302;2023-01-29T11:14:01;99118.16;;;20.01;36.07
33163;BME280;29282;45.656;11.302;2023-01-29T11:16:40;99115.88;;;20.03;36.24
33163;BME280;29282;45.656;11.302;2023-01-29T11:19:09;99107.16;;;20.01;36.38
33163;BME280;29282;45.656;11.302;2023-01-29T11:21:56;99100.84;;;20.01;36.47
33163;BME280;29282;45.656;11.302;2023-01-29T11:24:22;99092.91;;;19.99;36.59
33163;BME280;29282;45.656;11.302;2023-01-29T11:26:49;99089.50;;;20.02;36.49
33163;BME280;29282;45.656;11.302;2023-01-29T11:31:55;99086.75;;;20.02;36.48
33163;BME280;29282;45.656;11.302;2023-01-29T11:34:23;99073.34;;;20.01;36.51
33163;BME280;29282;45.656;11.302;2023-01-29T11:37:14;99074.13;;;20.01;36.71
33163;BME280;29282;45.656;11.302;2023-01-29T11:39:44;99068.94;;;20.00;36.90
33163;BME280;29282;45.656;11.302;2023-01-29T11:42:21;99066.19;;;20.00;36.89
33163;BME280;29282;45.656;11.302;2023-01-29T11:44:47;99059.91;;;19.99;36.79
33163;BME280;29282;45.656;11.302;2023-01-29T11:49:40;99052.78;;;19.98;37.17
33163;BME280;29282;45.656;11.302;2023-01-29T11:52:09;99045.19;;;19.95;37.41
33163;BME280;29282;45.656;11.302;2023-01-29T11:54:39;99036.94;;;19.95;37.54
33163;BME280;29282;45.656;11.302;2023-01-29T11:57:35;99038.53;;;19.96;38.12
33163;BME280;29282;45.656;11.302;2023-01-29T12:00:19;99031.94;;;19.97;38.23
33163;BME280;29282;45.656;11.302;2023-01-29T12:02:48;99025.94;;;19.95;37.93
33163;BME280;29282;45.656;11.302;2023-01-29T12:05:20;99025.94;;;19.95;37.97
33163;BME280;29282;45.656;11.302;2023-01-29T12:07:49;99031.44;;;19.95;37.83
33163;BME280;29282;45.656;11.302;2023-01-29T12:13:25;99034.03;;;19.83;37.63
33163;BME280;29282;45.656;11.302;2023-01-29T12:16:27;99025.31;;;19.81;37.44
33163;BME280;29282;45.656;11.302;2023-01-29T12:18:55;99012.84;;;19.83;37.55
33163;BME280;29282;45.656;11.302;2023-01-29T12:21:33;99010.91;;;19.84;37.38
33163;BME280;29282;45.656;11.302;2023-01-29T12:24:11;98999.28;;;19.78;37.08
33163;BME280;29282;45.656;11.302;2023-01-29T12:26:45;99000.06;;;19.79;36.92
33163;BME280;29282;45.656;11.302;2023-01-29T12:29:35;99009.63;;;19.81;36.93
33163;BME280;29282;45.656;11.302;2023-01-29T12:34:59;99012.19;;;19.86;36.61
33163;BME280;29282;45.656;11.302;2023-01-29T12:40:14;98995.38;;;19.88;36.79
33163;BME280;29282;45.656;11.302;2023-01-29T12:42:43;98991.47;;;19.89;36.77
33163;BME280;29282;45.656;11.302;2023-01-29T12:45:16;98984.84;;;19.90;36.69
33163;BME280;29282;45.656;11.302;2023-01-29T12:47:55;98984.84;;;19.90;36.50
33163;BME280;29282;45.656;11.302;2023-01-29T12:55:19;98985.34;;;19.92;36.32
33163;BME280;29282;45.656;11.302;2023-01-29T12:57:56;98988.06;;;19.92;36.66
33163;BME280;29282;45.656;11.302;2023-01-29T13:00:25;98982.59;;;19.92;36.78
33163;BME280;29282;45.656;11.302;2023-01-29T13:06:16;98963.97;;;19.89;36.86
33163;BME280;29282;45.656;11.302;2023-01-29T13:08:55;98958.47;;;19.89;36.99
33163;BME280;29282;45.656;11.302;2023-01-29T13:11:28;98949.44;;;19.88;36.94
33163;BME280;29282;45.656;11.302;2023-01-29T13:14:03;98951.03;;;19.89;37.24
33163;BME280;29282;45.656;11.302;2023-01-29T13:16:40;98939.22;;;19.89;36.85
33163;BME280;29282;45.656;11.302;2023-01-29T13:19:21;98946.19;;;19.86;37.23
33163;BME280;29282;45.656;11.302;2023-01-29T13:21:49;98945.38;;;19.86;37.12
33163;BME280;29282;45.656;11.302;2023-01-29T13:24:21;98948.94;;;19.86;36.96
33163;BME280;29282;45.656;11.302;2023-01-29T13:26:48;98946.19;;;19.86;37.12
33163;BME280;29282;45.656;11.302;2023-01-29T13:29:21;98947.34;;;19.85;37.42
33163;BME280;29282;45.656;11.302;2023-01-29T13:31:49;98953.63;;;19.86;37.20
33163;BME280;29282;45.656;11.302;2023-01-29T13:34:37;98945.38;;;19.86;37.52
33163;BME280;29282;45.656;11.302;2023-01-29T13:37:11;98945.72;;;19.84;37.23
33163;BME280;29282;45.656;11.302;2023-01-29T13:39:47;98944.94;;;19.84;37.36
33163;BME280;29282;45.656;11.302;2023-01-29T13:42:17;98947.69;;;19.84;37.32
33163;BME280;29282;45.656;11.302;2023-01-29T13:44:48;98949.59;;;19.83;37.42
33163;BME280;29282;45.656;11.302;2023-01-29T13:47:40;98942.19;;;19.84;37.43
33163;BME280;29282;45.656;11.302;2023-01-29T13:50:18;98947.97;;;19.82;37.41
33163;BME280;29282;45.656;11.302;2023-01-29T13:52:52;98947.69;;;19.84;37.49
33163;BME280;29282;45.656;11.302;2023-01-29T13:55:20;98944.44;;;19.82;37.47
33163;BME280;29282;45.656;11.302;2023-01-29T13:57:50;98942.81;;;19.81;37.61
33163;BME280;29282;45.656;11.302;2023-01-29T14:10:28;98930.19;;;19.80;37.87
33163;BME280;29282;45.656;11.302;2023-01-29T14:15:43;98927.78;;;19.78;37.77
33163;BME280;29282;45.656;11.302;2023-01-29T14:18:20;98922.59;;;19.77;38.02
33163;BME280;29282;45.656;11.302;2023-01-29T14:27:02;98925.34;;;19.77;38.06
33163;BME280;29282;45.656;11.302;2023-01-29T14:37:39;98931.53;;;19.74;38.62
33163;BME280;29282;45.656;11.302;2023-01-29T14:39:50;98934.75;;;19.76;38.58
33163;BME280;29282;45.656;11.302;2023-01-29T14:42:20;98936.69;;;19.75;38.65
33163;BME280;29282;45.656;11.302;2023-01-29T14:44:55;98940.25;;;19.76;38.83
33163;BME280;29282;45.656;11.302;2023-01-29T14:53:26;98947.69;;;19.75;38.98
33163;BME280;29282;45.656;11.302;2023-01-29T14:56:10;98940.91;;;19.73;38.98
33163;BME280;29282;45.656;11.302;2023-01-29T14:58:52;98935.25;;;19.69;38.99
33163;BME280;29282;45.656;11.302;2023-01-29T15:03:57;98936.69;;;19.66;38.97
33163;BME280;29282;45.656;11.302;2023-01-29T15:06:43;98939.13;;;19.68;39.10
33163;BME280;29282;45.656;11.302;2023-01-29T15:09:18;98938.78;;;19.69;39.07
33163;BME280;29282;45.656;11.302;2023-01-29T15:11:56;98935.75;;;19.71;39.01
33163;BME280;29282;45.656;11.302;2023-01-29T15:14:32;98935.41;;;19.73;38.89
33163;BME280;29282;45.656;11.302;2023-01-29T15:17:34;98942.53;;;19.74;38.88
33163;BME280;29282;45.656;11.302;2023-01-29T15:20:26;98939.09;;;19.77;38.63
33163;BME280;29282;45.656;11.302;2023-01-29T15:22:52;98935.22;;;19.78;38.80
33163;BME280;29282;45.656;11.302;2023-01-29T15:25:17;98934.09;;;19.79;38.89
33163;BME280;29282;45.656;11.302;2023-01-29T15:27:46;98935.69;;;19.80;38.92
33163;BME280;29282;45.656;11.302;2023-01-29T15:30:25;98935.69;;;19.80;38.87
33163;BME280;29282;45.656;11.302;2023-01-29T15:32:53;98944.59;;;19.77;39.04
33163;BME280;29282;45.656;11.302;2023-01-29T15:35:28;98948.97;;;19.78;39.96
33163;BME280;29282;45.656;11.302;2023-01-29T15:38:25;98942.69;;;19.77;39.99
33163;BME280;29282;45.656;11.302;2023-01-29T15:40:59;98957.53;;;19.76;40.77
33163;BME280;29282;45.656;11.302;2023-01-29T15:43:33;98958.34;;;19.77;41.44
33163;BME280;29282;45.656;11.302;2023-01-29T15:46:10;98958.34;;;19.77;41.50
33163;BME280;29282;45.656;11.302;2023-01-29T15:48:41;98965.00;;;19.76;42.17
33163;BME280;29282;45.656;11.302;2023-01-29T15:51:12;98963.38;;;19.75;41.91
33163;BME280;29282;45.656;11.302;2023-01-29T15:54:00;98965.78;;;19.76;42.21